sensor_id;sensor_type;location;lat;lon;timestamp;temperature;humidity
21403;DHT22;10862;51.886;17.078;2023-12-20T00:01:22;24.00;99.90
21403;DHT22;10862;51.886;17.078;2023-12-20T00:03:48;23.90;99.90
21403;DHT22;10862;51.886;17.078;2023-12-20T00:06:14;24.00;99.90
21403;DHT22;10862;51.886;17.078;2023-12-20T00:08:39;23.90;99.90
21403;DHT22;10862;51.886;17.078;2023-12-20T00:11:05;23.90;99.90
21403;DHT22;10862;51.886;17.078;2023-12-20T00:13:31;23.90;99.90
21403;DHT22;10862;51.886;17.078;2023-12-20T00:15:56;23.90;99.90
21403;DHT22;10862;51.886;17.078;2023-12-20T00:18:22;23.90;99.90
21403;DHT22;10862;51.886;17.078;2023-12-20T00:20:48;23.90;99.90
21403;DHT22;10862;51.886;17.078;2023-12-20T00:23:13;23.90;99.90
21403;DHT22;10862;51.886;17.078;2023-12-20T00:25:39;23.90;99.90
21403;DHT22;10862;51.886;17.078;2023-12-20T00:28:04;23.90;99.90
21403;DHT22;10862;51.886;17.078;2023-12-20T00:30:30;23.90;99.90
21403;DHT22;10862;51.886;17.078;2023-12-20T00:32:56;23.90;99.90
21403;DHT22;10862;51.886;17.078;2023-12-20T00:35:21;23.90;99.90
21403;DHT22;10862;51.886;17.078;2023-12-20T00:37:47;23.90;99.90
21403;DHT22;10862;51.886;17.078;2023-12-20T00:40:13;23.90;99.90
21403;DHT22;10862;51.886;17.078;2023-12-20T00:42:38;23.90;99.90
21403;DHT22;10862;51.886;17.078;2023-12-20T00:45:05;23.90;99.90
21403;DHT22;10862;51.886;17.078;2023-12-20T00:47:33;23.90;99.90
21403;DHT22;10862;51.886;17.078;2023-12-20T00:49:59;23.80;99.90
21403;DHT22;10862;51.886;17.078;2023-12-20T00:52:24;23.80;99.90
21403;DHT22;10862;51.886;17.078;2023-12-20T00:54:50;23.80;99.90
21403;DHT22;10862;51.886;17.078;2023-12-20T00:57:16;23.90;99.90
21403;DHT22;10862;51.886;17.078;2023-12-20T00:59:42;23.80;99.90
21403;DHT22;10862;51.886;17.078;2023-12-20T01:02:07;23.90;99.90
21403;DHT22;10862;51.886;17.078;2023-12-20T01:04:34;23.80;99.90
21403;DHT22;10862;51.886;17.078;2023-12-20T01:06:59;23.80;99.90
21403;DHT22;10862;51.886;17.078;2023-12-20T01:09:25;23.80;99.90
21403;DHT22;10862;51.886;17.078;2023-12-20T01:11:52;23.80;99.90
21403;DHT22;10862;51.886;17.078;2023-12-20T01:14:18;23.80;99.90
21403;DHT22;10862;51.886;17.078;2023-12-20T01:16:44;23.80;99.90
21403;DHT22;10862;51.886;17.078;2023-12-20T01:19:09;23.80;99.90
21403;DHT22;10862;51.886;17.078;2023-12-20T01:21:35;23.70;99.90
21403;DHT22;10862;51.886;17.078;2023-12-20T01:24:01;23.70;99.90
21403;DHT22;10862;51.886;17.078;2023-12-20T01:26:26;23.70;99.90
21403;DHT22;10862;51.886;17.078;2023-12-20T01:28:52;23.70;99.90
21403;DHT22;10862;51.886;17.078;2023-12-20T01:31:17;23.70;99.90
21403;DHT22;10862;51.886;17.078;2023-12-20T01:33:43;23.70;99.90
21403;DHT22;10862;51.886;17.078;2023-12-20T01:36:09;23.70;99.90
21403;DHT22;10862;51.886;17.078;2023-12-20T01:38:34;23.70;99.90
21403;DHT22;10862;51.886;17.078;2023-12-20T01:41:00;23.70;99.90
21403;DHT22;10862;51.886;17.078;2023-12-20T01:43:25;23.70;99.90
21403;DHT22;10862;51.886;17.078;2023-12-20T01:45:51;23.70;99.90
21403;DHT22;10862;51.886;17.078;2023-12-20T01:48:18;23.70;99.90
21403;DHT22;10862;51.886;17.078;2023-12-20T01:50:45;23.70;99.90
21403;DHT22;10862;51.886;17.078;2023-12-20T01:53:12;23.70;99.90
21403;DHT22;10862;51.886;17.078;2023-12-20T01:55:40;23.70;99.90
21403;DHT22;10862;51.886;17.078;2023-12-20T01:58:09;23.60;99.90
21403;DHT22;10862;51.886;17.078;2023-12-20T02:00:36;23.70;99.90
21403;DHT22;10862;51.886;17.078;2023-12-20T02:03:02;23.70;99.90
21403;DHT22;10862;51.886;17.078;2023-12-20T02:05:29;23.70;99.90
21403;DHT22;10862;51.886;17.078;2023-12-20T02:07:55;23.60;99.90
21403;DHT22;10862;51.886;17.078;2023-12-20T02:10:21;23.60;99.90
21403;DHT22;10862;51.886;17.078;2023-12-20T02:12:46;23.60;99.90
21403;DHT22;10862;51.886;17.078;2023-12-20T02:15:12;23.60;99.90
21403;DHT22;10862;51.886;17.078;2023-12-20T02:17:38;23.60;99.90
21403;DHT22;10862;51.886;17.078;2023-12-20T02:20:05;23.60;99.90
21403;DHT22;10862;51.886;17.078;2023-12-20T02:22:31;23.60;99.90
21403;DHT22;10862;51.886;17.078;2023-12-20T02:24:57;23.60;99.90
21403;DHT22;10862;51.886;17.078;2023-12-20T02:27:23;23.60;99.90
21403;DHT22;10862;51.886;17.078;2023-12-20T02:29:50;23.50;99.90
21403;DHT22;10862;51.886;17.078;2023-12-20T02:32:18;23.60;99.90
21403;DHT22;10862;51.886;17.078;2023-12-20T02:34:45;23.60;99.90
21403;DHT22;10862;51.886;17.078;2023-12-20T02:37:11;23.50;99.90
21403;DHT22;10862;51.886;17.078;2023-12-20T02:39:37;23.60;99.90
21403;DHT22;10862;51.886;17.078;2023-12-20T02:42:02;23.50;99.90
21403;DHT22;10862;51.886;17.078;2023-12-20T02:44:28;23.60;99.90
21403;DHT22;10862;51.886;17.078;2023-12-20T02:46:54;23.50;99.90
21403;DHT22;10862;51.886;17.078;2023-12-20T02:49:19;23.60;99.90
21403;DHT22;10862;51.886;17.078;2023-12-20T02:51:45;23.50;99.90
21403;DHT22;10862;51.886;17.078;2023-12-20T02:54:11;23.60;99.90
21403;DHT22;10862;51.886;17.078;2023-12-20T02:56:37;23.60;99.90
21403;DHT22;10862;51.886;17.078;2023-12-20T02:59:02;23.60;99.90
21403;DHT22;10862;51.886;17.078;2023-12-20T03:01:31;23.50;99.90
21403;DHT22;10862;51.886;17.078;2023-12-20T03:03:57;23.50;99.90
21403;DHT22;10862;51.886;17.078;2023-12-20T03:06:22;23.50;99.90
21403;DHT22;10862;51.886;17.078;2023-12-20T03:08:48;23.50;99.90
21403;DHT22;10862;51.886;17.078;2023-12-20T03:11:13;23.50;99.90
21403;DHT22;10862;51.886;17.078;2023-12-20T03:13:39;23.50;99.90
21403;DHT22;10862;51.886;17.078;2023-12-20T03:16:12;23.50;99.90
21403;DHT22;10862;51.886;17.078;2023-12-20T03:18:38;23.50;99.90
21403;DHT22;10862;51.886;17.078;2023-12-20T03:21:05;23.50;99.90
21403;DHT22;10862;51.886;17.078;2023-12-20T03:23:31;23.50;99.90
21403;DHT22;10862;51.886;17.078;2023-12-20T03:25:58;23.50;99.90
21403;DHT22;10862;51.886;17.078;2023-12-20T03:28:24;23.50;99.90
21403;DHT22;10862;51.886;17.078;2023-12-20T03:30:49;23.40;99.90
21403;DHT22;10862;51.886;17.078;2023-12-20T03:33:15;23.40;99.90
21403;DHT22;10862;51.886;17.078;2023-12-20T03:35:41;23.50;99.90
21403;DHT22;10862;51.886;17.078;2023-12-20T03:38:07;23.50;99.90
21403;DHT22;10862;51.886;17.078;2023-12-20T03:40:33;23.40;99.90
21403;DHT22;10862;51.886;17.078;2023-12-20T03:42:58;23.50;99.90
21403;DHT22;10862;51.886;17.078;2023-12-20T03:45:24;23.40;99.90
21403;DHT22;10862;51.886;17.078;2023-12-20T03:47:50;23.40;99.90
21403;DHT22;10862;51.886;17.078;2023-12-20T03:50:21;23.40;99.90
21403;DHT22;10862;51.886;17.078;2023-12-20T03:52:47;23.40;99.90
21403;DHT22;10862;51.886;17.078;2023-12-20T03:55:12;23.40;99.90
21403;DHT22;10862;51.886;17.078;2023-12-20T03:57:38;23.40;99.90
21403;DHT22;10862;51.886;17.078;2023-12-20T04:00:04;23.40;99.90
21403;DHT22;10862;51.886;17.078;2023-12-20T04:02:30;23.40;99.90
21403;DHT22;10862;51.886;17.078;2023-12-20T04:04:56;23.40;99.90
21403;DHT22;10862;51.886;17.078;2023-12-20T04:07:22;23.40;99.90
21403;DHT22;10862;51.886;17.078;2023-12-20T04:09:47;23.40;99.90
21403;DHT22;10862;51.886;17.078;2023-12-20T04:12:13;23.40;99.90
21403;DHT22;10862;51.886;17.078;2023-12-20T04:14:39;23.30;99.90
21403;DHT22;10862;51.886;17.078;2023-12-20T04:17:05;23.30;99.90
21403;DHT22;10862;51.886;17.078;2023-12-20T04:19:30;23.40;99.90
21403;DHT22;10862;51.886;17.078;2023-12-20T04:21:56;23.40;99.90
21403;DHT22;10862;51.886;17.078;2023-12-20T04:24:21;23.40;99.90
21403;DHT22;10862;51.886;17.078;2023-12-20T04:26:48;23.30;99.90
21403;DHT22;10862;51.886;17.078;2023-12-20T04:29:13;23.30;99.90
21403;DHT22;10862;51.886;17.078;2023-12-20T04:31:39;23.40;99.90
21403;DHT22;10862;51.886;17.078;2023-12-20T04:34:04;23.30;99.90
21403;DHT22;10862;51.886;17.078;2023-12-20T04:36:30;23.30;99.90
21403;DHT22;10862;51.886;17.078;2023-12-20T04:38:56;23.30;99.90
21403;DHT22;10862;51.886;17.078;2023-12-20T04:41:21;23.30;99.90
21403;DHT22;10862;51.886;17.078;2023-12-20T04:43:47;23.30;99.90
21403;DHT22;10862;51.886;17.078;2023-12-20T04:46:13;23.30;99.90
21403;DHT22;10862;51.886;17.078;2023-12-20T04:48:38;23.30;99.90
21403;DHT22;10862;51.886;17.078;2023-12-20T04:51:04;23.30;99.90
21403;DHT22;10862;51.886;17.078;2023-12-20T04:53:30;23.30;99.90
21403;DHT22;10862;51.886;17.078;2023-12-20T04:55:55;23.30;99.90
21403;DHT22;10862;51.886;17.078;2023-12-20T04:58:21;23.30;99.90
21403;DHT22;10862;51.886;17.078;2023-12-20T05:00:46;23.30;99.90
21403;DHT22;10862;51.886;17.078;2023-12-20T05:03:12;23.30;99.90
21403;DHT22;10862;51.886;17.078;2023-12-20T05:05:38;23.30;99.90
21403;DHT22;10862;51.886;17.078;2023-12-20T05:08:04;23.30;99.90
21403;DHT22;10862;51.886;17.078;2023-12-20T05:10:30;23.30;99.90
21403;DHT22;10862;51.886;17.078;2023-12-20T05:12:55;23.30;99.90
21403;DHT22;10862;51.886;17.078;2023-12-20T05:15:21;23.30;99.90
21403;DHT22;10862;51.886;17.078;2023-12-20T05:17:47;23.30;99.90
21403;DHT22;10862;51.886;17.078;2023-12-20T05:20:12;23.30;99.90
21403;DHT22;10862;51.886;17.078;2023-12-20T05:22:38;23.30;99.90
21403;DHT22;10862;51.886;17.078;2023-12-20T05:25:04;23.30;99.90
21403;DHT22;10862;51.886;17.078;2023-12-20T05:27:30;23.30;99.90
21403;DHT22;10862;51.886;17.078;2023-12-20T05:29:55;23.30;99.90
21403;DHT22;10862;51.886;17.078;2023-12-20T05:32:23;23.30;99.90
21403;DHT22;10862;51.886;17.078;2023-12-20T05:34:49;23.20;99.90
21403;DHT22;10862;51.886;17.078;2023-12-20T05:37:14;23.30;99.90
21403;DHT22;10862;51.886;17.078;2023-12-20T05:39:40;23.30;99.90
21403;DHT22;10862;51.886;17.078;2023-12-20T05:42:05;23.20;99.90
21403;DHT22;10862;51.886;17.078;2023-12-20T05:44:31;23.30;99.90
21403;DHT22;10862;51.886;17.078;2023-12-20T05:46:57;23.30;99.90
21403;DHT22;10862;51.886;17.078;2023-12-20T05:49:22;23.30;99.90
21403;DHT22;10862;51.886;17.078;2023-12-20T05:51:48;23.20;99.90
21403;DHT22;10862;51.886;17.078;2023-12-20T05:54:13;23.20;99.90
21403;DHT22;10862;51.886;17.078;2023-12-20T05:56:39;23.30;99.90
21403;DHT22;10862;51.886;17.078;2023-12-20T05:59:04;23.30;99.90
21403;DHT22;10862;51.886;17.078;2023-12-20T06:01:30;23.30;99.90
21403;DHT22;10862;51.886;17.078;2023-12-20T06:03:55;23.30;99.90
21403;DHT22;10862;51.886;17.078;2023-12-20T06:06:21;23.30;99.90
21403;DHT22;10862;51.886;17.078;2023-12-20T06:08:47;23.30;99.90
21403;DHT22;10862;51.886;17.078;2023-12-20T06:11:12;23.30;99.90
21403;DHT22;10862;51.886;17.078;2023-12-20T06:13:39;23.30;99.90
21403;DHT22;10862;51.886;17.078;2023-12-20T06:16:05;23.30;99.90
21403;DHT22;10862;51.886;17.078;2023-12-20T06:18:32;23.30;99.90
21403;DHT22;10862;51.886;17.078;2023-12-20T06:20:58;23.30;99.90
21403;DHT22;10862;51.886;17.078;2023-12-20T06:23:23;23.30;99.90
21403;DHT22;10862;51.886;17.078;2023-12-20T06:25:49;23.30;99.90
21403;DHT22;10862;51.886;17.078;2023-12-20T06:28:15;23.30;99.90
21403;DHT22;10862;51.886;17.078;2023-12-20T06:30:40;23.30;99.90
21403;DHT22;10862;51.886;17.078;2023-12-20T06:33:06;23.30;99.90
21403;DHT22;10862;51.886;17.078;2023-12-20T06:35:32;23.30;99.90
21403;DHT22;10862;51.886;17.078;2023-12-20T06:37:58;23.30;99.90
21403;DHT22;10862;51.886;17.078;2023-12-20T06:40:23;23.30;99.90
21403;DHT22;10862;51.886;17.078;2023-12-20T06:42:49;23.40;99.90
21403;DHT22;10862;51.886;17.078;2023-12-20T06:45:15;23.30;99.90
21403;DHT22;10862;51.886;17.078;2023-12-20T06:47:40;23.30;99.90
21403;DHT22;10862;51.886;17.078;2023-12-20T06:50:06;23.30;99.90
21403;DHT22;10862;51.886;17.078;2023-12-20T06:52:34;23.30;99.90
21403;DHT22;10862;51.886;17.078;2023-12-20T06:55:00;23.30;99.90
21403;DHT22;10862;51.886;17.078;2023-12-20T06:57:26;23.30;99.90
21403;DHT22;10862;51.886;17.078;2023-12-20T06:59:52;23.30;99.90
21403;DHT22;10862;51.886;17.078;2023-12-20T07:02:17;23.20;99.90
21403;DHT22;10862;51.886;17.078;2023-12-20T07:04:43;23.30;99.90
21403;DHT22;10862;51.886;17.078;2023-12-20T07:07:09;23.20;99.90
21403;DHT22;10862;51.886;17.078;2023-12-20T07:09:34;23.30;99.90
21403;DHT22;10862;51.886;17.078;2023-12-20T07:12:00;23.30;99.90
21403;DHT22;10862;51.886;17.078;2023-12-20T07:14:25;23.20;99.90
21403;DHT22;10862;51.886;17.078;2023-12-20T07:16:51;23.20;99.90
21403;DHT22;10862;51.886;17.078;2023-12-20T07:19:17;23.20;99.90
21403;DHT22;10862;51.886;17.078;2023-12-20T07:21:43;23.20;99.90
21403;DHT22;10862;51.886;17.078;2023-12-20T07:24:08;23.20;99.90
21403;DHT22;10862;51.886;17.078;2023-12-20T07:26:35;23.20;99.90
21403;DHT22;10862;51.886;17.078;2023-12-20T07:29:00;23.20;99.90
21403;DHT22;10862;51.886;17.078;2023-12-20T07:31:26;23.20;99.90
21403;DHT22;10862;51.886;17.078;2023-12-20T07:33:51;23.20;99.90
21403;DHT22;10862;51.886;17.078;2023-12-20T07:36:19;23.20;99.90
21403;DHT22;10862;51.886;17.078;2023-12-20T07:38:45;23.20;99.90
21403;DHT22;10862;51.886;17.078;2023-12-20T07:41:11;23.10;99.90
21403;DHT22;10862;51.886;17.078;2023-12-20T07:43:36;23.20;99.90
21403;DHT22;10862;51.886;17.078;2023-12-20T07:46:08;23.20;99.90
21403;DHT22;10862;51.886;17.078;2023-12-20T07:48:37;23.20;99.90
21403;DHT22;10862;51.886;17.078;2023-12-20T07:51:04;23.20;99.90
21403;DHT22;10862;51.886;17.078;2023-12-20T07:53:29;23.20;99.90
21403;DHT22;10862;51.886;17.078;2023-12-20T07:55:55;23.20;99.90
21403;DHT22;10862;51.886;17.078;2023-12-20T07:58:21;23.20;99.90
21403;DHT22;10862;51.886;17.078;2023-12-20T08:00:47;23.20;99.90
21403;DHT22;10862;51.886;17.078;2023-12-20T08:03:13;23.20;99.90
21403;DHT22;10862;51.886;17.078;2023-12-20T08:05:38;23.20;99.90
21403;DHT22;10862;51.886;17.078;2023-12-20T08:08:07;23.30;99.90
21403;DHT22;10862;51.886;17.078;2023-12-20T08:10:32;23.20;99.90
21403;DHT22;10862;51.886;17.078;2023-12-20T08:12:58;23.30;99.90
21403;DHT22;10862;51.886;17.078;2023-12-20T08:15:24;23.20;99.90
21403;DHT22;10862;51.886;17.078;2023-12-20T08:17:49;23.20;99.90
21403;DHT22;10862;51.886;17.078;2023-12-20T08:20:18;23.20;99.90
21403;DHT22;10862;51.886;17.078;2023-12-20T08:22:44;23.20;99.90
21403;DHT22;10862;51.886;17.078;2023-12-20T08:25:10;23.20;99.90
21403;DHT22;10862;51.886;17.078;2023-12-20T08:27:40;23.20;99.90
21403;DHT22;10862;51.886;17.078;2023-12-20T08:30:07;23.20;99.90
21403;DHT22;10862;51.886;17.078;2023-12-20T08:32:33;23.20;99.90
21403;DHT22;10862;51.886;17.078;2023-12-20T08:34:59;23.20;99.90
21403;DHT22;10862;51.886;17.078;2023-12-20T08:37:25;23.20;99.90
21403;DHT22;10862;51.886;17.078;2023-12-20T08:39:50;23.20;99.90
21403;DHT22;10862;51.886;17.078;2023-12-20T08:42:17;23.10;99.90
21403;DHT22;10862;51.886;17.078;2023-12-20T08:44:42;23.20;99.90
21403;DHT22;10862;51.886;17.078;2023-12-20T08:47:08;23.20;99.90
21403;DHT22;10862;51.886;17.078;2023-12-20T08:49:34;23.20;99.90
21403;DHT22;10862;51.886;17.078;2023-12-20T08:51:59;23.10;99.90
21403;DHT22;10862;51.886;17.078;2023-12-20T08:54:25;23.20;99.90
21403;DHT22;10862;51.886;17.078;2023-12-20T08:56:50;23.20;99.90
21403;DHT22;10862;51.886;17.078;2023-12-20T08:59:16;23.10;99.90
21403;DHT22;10862;51.886;17.078;2023-12-20T09:01:41;23.20;99.90
21403;DHT22;10862;51.886;17.078;2023-12-20T09:04:07;23.20;99.90
21403;DHT22;10862;51.886;17.078;2023-12-20T09:06:33;23.10;99.90
21403;DHT22;10862;51.886;17.078;2023-12-20T09:08:58;23.10;99.90
21403;DHT22;10862;51.886;17.078;2023-12-20T09:11:24;23.10;99.90
21403;DHT22;10862;51.886;17.078;2023-12-20T09:13:49;23.10;99.90
21403;DHT22;10862;51.886;17.078;2023-12-20T09:16:15;23.10;99.90
21403;DHT22;10862;51.886;17.078;2023-12-20T09:18:41;23.10;99.90
21403;DHT22;10862;51.886;17.078;2023-12-20T09:21:07;23.10;99.90
21403;DHT22;10862;51.886;17.078;2023-12-20T09:23:33;23.10;99.90
21403;DHT22;10862;51.886;17.078;2023-12-20T09:25:58;23.00;99.90
21403;DHT22;10862;51.886;17.078;2023-12-20T09:28:24;23.00;99.90
21403;DHT22;10862;51.886;17.078;2023-12-20T09:30:50;23.10;99.90
21403;DHT22;10862;51.886;17.078;2023-12-20T09:33:15;23.10;99.90
21403;DHT22;10862;51.886;17.078;2023-12-20T09:35:42;23.10;99.90
21403;DHT22;10862;51.886;17.078;2023-12-20T09:38:07;23.00;99.90
21403;DHT22;10862;51.886;17.078;2023-12-20T09:40:34;23.10;99.90
21403;DHT22;10862;51.886;17.078;2023-12-20T09:43:04;23.10;99.90
21403;DHT22;10862;51.886;17.078;2023-12-20T09:45:34;23.20;99.90
21403;DHT22;10862;51.886;17.078;2023-12-20T09:48:00;23.10;99.90
21403;DHT22;10862;51.886;17.078;2023-12-20T09:50:26;23.20;99.90
21403;DHT22;10862;51.886;17.078;2023-12-20T09:52:53;23.20;99.90
21403;DHT22;10862;51.886;17.078;2023-12-20T09:55:19;23.20;99.90
21403;DHT22;10862;51.886;17.078;2023-12-20T09:57:46;23.20;99.90
21403;DHT22;10862;51.886;17.078;2023-12-20T10:00:13;23.20;99.90
21403;DHT22;10862;51.886;17.078;2023-12-20T10:02:50;23.20;99.90
21403;DHT22;10862;51.886;17.078;2023-12-20T10:05:28;23.30;99.90
21403;DHT22;10862;51.886;17.078;2023-12-20T10:07:54;23.30;99.90
21403;DHT22;10862;51.886;17.078;2023-12-20T10:10:20;23.20;99.90
21403;DHT22;10862;51.886;17.078;2023-12-20T10:13:03;23.20;99.90
21403;DHT22;10862;51.886;17.078;2023-12-20T10:15:29;23.20;99.90
21403;DHT22;10862;51.886;17.078;2023-12-20T10:17:54;23.30;99.90
21403;DHT22;10862;51.886;17.078;2023-12-20T10:20:20;23.20;99.90
21403;DHT22;10862;51.886;17.078;2023-12-20T10:22:46;23.20;99.90
21403;DHT22;10862;51.886;17.078;2023-12-20T10:25:13;23.20;99.90
21403;DHT22;10862;51.886;17.078;2023-12-20T10:27:38;23.20;99.90
21403;DHT22;10862;51.886;17.078;2023-12-20T10:30:04;23.20;99.90
21403;DHT22;10862;51.886;17.078;2023-12-20T10:32:31;23.20;99.90
21403;DHT22;10862;51.886;17.078;2023-12-20T10:34:57;23.20;99.90
21403;DHT22;10862;51.886;17.078;2023-12-20T10:37:24;23.20;99.90
21403;DHT22;10862;51.886;17.078;2023-12-20T10:39:54;23.20;99.90
21403;DHT22;10862;51.886;17.078;2023-12-20T10:42:26;23.20;99.90
21403;DHT22;10862;51.886;17.078;2023-12-20T10:44:51;23.20;99.90
21403;DHT22;10862;51.886;17.078;2023-12-20T10:47:20;23.20;99.90
21403;DHT22;10862;51.886;17.078;2023-12-20T10:49:46;23.20;99.90
21403;DHT22;10862;51.886;17.078;2023-12-20T10:52:12;23.20;99.90
21403;DHT22;10862;51.886;17.078;2023-12-20T10:54:40;23.20;99.90
21403;DHT22;10862;51.886;17.078;2023-12-20T10:57:06;23.20;99.90
21403;DHT22;10862;51.886;17.078;2023-12-20T10:59:33;23.20;99.90
21403;DHT22;10862;51.886;17.078;2023-12-20T11:02:02;23.20;99.90
21403;DHT22;10862;51.886;17.078;2023-12-20T11:04:44;23.20;99.90
21403;DHT22;10862;51.886;17.078;2023-12-20T11:07:20;23.20;99.90
21403;DHT22;10862;51.886;17.078;2023-12-20T11:14:01;16.00;45.10
21403;DHT22;10862;51.886;17.078;2023-12-20T11:16:35;11.00;99.90
21403;DHT22;10862;51.886;17.078;2023-12-20T11:19:07;8.80;1.00
21403;DHT22;10862;51.886;17.078;2023-12-20T11:21:33;7.60;1.00
21403;DHT22;10862;51.886;17.078;2023-12-20T11:23:59;7.00;99.90
21403;DHT22;10862;51.886;17.078;2023-12-20T11:26:29;6.70;99.90
21403;DHT22;10862;51.886;17.078;2023-12-20T11:31:42;6.60;99.90
21403;DHT22;10862;51.886;17.078;2023-12-20T11:34:14;6.60;99.90
21403;DHT22;10862;51.886;17.078;2023-12-20T11:36:42;6.50;99.90
21403;DHT22;10862;51.886;17.078;2023-12-20T11:39:08;6.60;99.90
21403;DHT22;10862;51.886;17.078;2023-12-20T11:41:36;6.50;99.90
21403;DHT22;10862;51.886;17.078;2023-12-20T11:44:04;6.50;99.90
21403;DHT22;10862;51.886;17.078;2023-12-20T11:46:31;6.50;99.90
21403;DHT22;10862;51.886;17.078;2023-12-20T11:48:57;6.50;99.90
21403;DHT22;10862;51.886;17.078;2023-12-20T11:51:22;6.50;99.90
21403;DHT22;10862;51.886;17.078;2023-12-20T11:53:52;6.40;99.90
21403;DHT22;10862;51.886;17.078;2023-12-20T11:56:18;6.40;99.90
21403;DHT22;10862;51.886;17.078;2023-12-20T11:58:44;6.30;99.90
21403;DHT22;10862;51.886;17.078;2023-12-20T12:01:10;6.40;99.90
21403;DHT22;10862;51.886;17.078;2023-12-20T12:03:36;6.30;1.00
21403;DHT22;10862;51.886;17.078;2023-12-20T12:06:02;6.20;1.00
21403;DHT22;10862;51.886;17.078;2023-12-20T12:08:29;6.30;1.00
21403;DHT22;10862;51.886;17.078;2023-12-20T12:10:55;6.40;1.00
21403;DHT22;10862;51.886;17.078;2023-12-20T12:13:21;6.50;1.00
21403;DHT22;10862;51.886;17.078;2023-12-20T12:15:48;6.70;1.00
21403;DHT22;10862;51.886;17.078;2023-12-20T12:18:16;6.60;99.90
21403;DHT22;10862;51.886;17.078;2023-12-20T12:20:42;6.60;99.90
21403;DHT22;10862;51.886;17.078;2023-12-20T12:23:07;6.50;99.90
21403;DHT22;10862;51.886;17.078;2023-12-20T12:25:35;6.50;99.90
21403;DHT22;10862;51.886;17.078;2023-12-20T12:28:02;6.40;1.00
21403;DHT22;10862;51.886;17.078;2023-12-20T12:30:28;6.50;1.00
21403;DHT22;10862;51.886;17.078;2023-12-20T12:32:55;6.40;1.00
21403;DHT22;10862;51.886;17.078;2023-12-20T12:35:22;6.50;1.00
21403;DHT22;10862;51.886;17.078;2023-12-20T12:37:47;6.30;1.00
21403;DHT22;10862;51.886;17.078;2023-12-20T12:40:14;6.30;1.00
21403;DHT22;10862;51.886;17.078;2023-12-20T12:42:41;6.30;1.00
21403;DHT22;10862;51.886;17.078;2023-12-20T12:45:08;6.20;1.00
21403;DHT22;10862;51.886;17.078;2023-12-20T12:47:34;6.30;1.00
21403;DHT22;10862;51.886;17.078;2023-12-20T12:50:00;6.30;1.00
21403;DHT22;10862;51.886;17.078;2023-12-20T12:52:26;6.30;1.00
21403;DHT22;10862;51.886;17.078;2023-12-20T12:54:53;6.30;1.00
21403;DHT22;10862;51.886;17.078;2023-12-20T12:57:19;6.30;1.00
21403;DHT22;10862;51.886;17.078;2023-12-20T12:59:45;6.30;1.00
21403;DHT22;10862;51.886;17.078;2023-12-20T13:02:14;6.30;1.00
21403;DHT22;10862;51.886;17.078;2023-12-20T13:04:41;6.50;1.00
21403;DHT22;10862;51.886;17.078;2023-12-20T13:07:07;6.50;1.00
21403;DHT22;10862;51.886;17.078;2023-12-20T13:09:36;6.50;1.00
21403;DHT22;10862;51.886;17.078;2023-12-20T13:12:01;6.50;1.00
21403;DHT22;10862;51.886;17.078;2023-12-20T13:14:30;6.50;1.00
21403;DHT22;10862;51.886;17.078;2023-12-20T13:16:56;6.50;1.00
21403;DHT22;10862;51.886;17.078;2023-12-20T13:19:21;6.40;1.00
21403;DHT22;10862;51.886;17.078;2023-12-20T13:21:47;6.50;1.00
21403;DHT22;10862;51.886;17.078;2023-12-20T13:24:14;6.50;1.00
21403;DHT22;10862;51.886;17.078;2023-12-20T13:26:40;6.50;1.00
21403;DHT22;10862;51.886;17.078;2023-12-20T13:29:06;6.40;1.00
21403;DHT22;10862;51.886;17.078;2023-12-20T13:31:32;6.50;1.00
21403;DHT22;10862;51.886;17.078;2023-12-20T13:33:57;6.50;1.00
21403;DHT22;10862;51.886;17.078;2023-12-20T13:36:23;6.50;1.00
21403;DHT22;10862;51.886;17.078;2023-12-20T13:38:49;6.60;1.00
21403;DHT22;10862;51.886;17.078;2023-12-20T13:41:14;6.50;99.90
21403;DHT22;10862;51.886;17.078;2023-12-20T13:43:40;6.50;1.00
21403;DHT22;10862;51.886;17.078;2023-12-20T13:46:06;6.40;1.00
21403;DHT22;10862;51.886;17.078;2023-12-20T13:48:31;6.40;1.00
21403;DHT22;10862;51.886;17.078;2023-12-20T13:50:57;6.30;1.00
21403;DHT22;10862;51.886;17.078;2023-12-20T13:53:23;6.30;1.00
21403;DHT22;10862;51.886;17.078;2023-12-20T13:55:48;6.40;1.00
21403;DHT22;10862;51.886;17.078;2023-12-20T13:58:15;6.40;1.00
21403;DHT22;10862;51.886;17.078;2023-12-20T14:00:40;6.40;1.00
21403;DHT22;10862;51.886;17.078;2023-12-20T14:03:06;6.40;99.90
21403;DHT22;10862;51.886;17.078;2023-12-20T14:05:32;6.40;99.90
21403;DHT22;10862;51.886;17.078;2023-12-20T14:07:58;6.40;99.90
21403;DHT22;10862;51.886;17.078;2023-12-20T14:10:24;6.40;99.90
21403;DHT22;10862;51.886;17.078;2023-12-20T14:12:54;6.40;99.90
21403;DHT22;10862;51.886;17.078;2023-12-20T14:15:19;6.50;99.90
21403;DHT22;10862;51.886;17.078;2023-12-20T14:17:45;6.40;99.90
21403;DHT22;10862;51.886;17.078;2023-12-20T14:20:11;6.40;99.90
21403;DHT22;10862;51.886;17.078;2023-12-20T14:22:38;6.40;99.90
21403;DHT22;10862;51.886;17.078;2023-12-20T14:25:10;6.40;99.90
21403;DHT22;10862;51.886;17.078;2023-12-20T14:27:37;6.40;99.90
21403;DHT22;10862;51.886;17.078;2023-12-20T14:30:03;6.40;99.90
21403;DHT22;10862;51.886;17.078;2023-12-20T14:32:29;6.40;99.90
21403;DHT22;10862;51.886;17.078;2023-12-20T14:34:54;6.40;99.90
21403;DHT22;10862;51.886;17.078;2023-12-20T14:37:20;6.40;99.90
21403;DHT22;10862;51.886;17.078;2023-12-20T14:39:46;6.30;99.90
21403;DHT22;10862;51.886;17.078;2023-12-20T14:42:11;6.20;99.90
21403;DHT22;10862;51.886;17.078;2023-12-20T14:44:42;6.00;99.90
21403;DHT22;10862;51.886;17.078;2023-12-20T14:47:08;6.10;99.90
21403;DHT22;10862;51.886;17.078;2023-12-20T14:49:34;6.20;99.90
21403;DHT22;10862;51.886;17.078;2023-12-20T14:51:59;6.20;99.90
21403;DHT22;10862;51.886;17.078;2023-12-20T14:54:25;6.10;99.90
21403;DHT22;10862;51.886;17.078;2023-12-20T14:56:51;6.20;99.90
21403;DHT22;10862;51.886;17.078;2023-12-20T14:59:17;6.20;99.90
21403;DHT22;10862;51.886;17.078;2023-12-20T15:01:43;6.30;1.00
21403;DHT22;10862;51.886;17.078;2023-12-20T15:04:09;6.30;1.00
21403;DHT22;10862;51.886;17.078;2023-12-20T15:06:36;6.40;1.00
21403;DHT22;10862;51.886;17.078;2023-12-20T15:09:02;6.30;1.00
21403;DHT22;10862;51.886;17.078;2023-12-20T15:11:30;6.20;1.00
21403;DHT22;10862;51.886;17.078;2023-12-20T15:13:57;6.20;1.00
21403;DHT22;10862;51.886;17.078;2023-12-20T15:16:25;6.20;1.00
21403;DHT22;10862;51.886;17.078;2023-12-20T15:18:52;6.00;1.00
21403;DHT22;10862;51.886;17.078;2023-12-20T15:21:19;6.10;1.00
21403;DHT22;10862;51.886;17.078;2023-12-20T15:23:45;6.00;1.00